createdAt,value
2023-04-24T00:01:47.906Z,14.60
2023-04-24T00:04:19.051Z,7.87
2023-04-24T00:06:50.781Z,11.50
2023-04-24T00:09:19.907Z,11.20
2023-04-24T00:11:48.988Z,16.47
2023-04-24T00:14:18.405Z,12.00
2023-04-24T00:16:47.537Z,9.87
2023-04-24T00:19:18.185Z,10.53
2023-04-24T00:21:47.402Z,8.83
2023-04-24T00:24:16.625Z,9.23
2023-04-24T00:26:45.675Z,10.53
2023-04-24T00:29:15.083Z,9.70
2023-04-24T00:31:44.195Z,10.10
2023-04-24T00:34:13.970Z,8.90
2023-04-24T00:36:44.689Z,8.90
2023-04-24T00:39:13.785Z,9.23
2023-04-24T00:41:42.945Z,9.00
2023-04-24T00:44:12.106Z,13.40
2023-04-24T00:46:41.690Z,14.03
2023-04-24T00:49:11.113Z,10.67
2023-04-24T00:51:41.935Z,12.70
2023-04-24T00:54:12.546Z,12.23
2023-04-24T00:56:42.623Z,10.97
2023-04-24T00:59:13.819Z,11.60
2023-04-24T01:01:44.131Z,14.60
2023-04-24T01:04:14.780Z,10.03
2023-04-24T01:06:46.240Z,12.90
2023-04-24T01:09:17.821Z,12.47
2023-04-24T01:11:47.164Z,9.03
2023-04-24T01:14:16.572Z,13.13
2023-04-24T01:16:45.990Z,12.27
2023-04-24T01:19:16.911Z,9.87
2023-04-24T01:21:46.987Z,8.70
2023-04-24T01:24:17.826Z,11.27
2023-04-24T01:26:47.885Z,9.37
2023-04-24T01:29:17.136Z,15.40
2023-04-24T01:31:46.526Z,10.43
2023-04-24T01:34:15.946Z,13.87
2023-04-24T01:36:47.662Z,11.43
2023-04-24T01:39:18.363Z,14.97
2023-04-24T01:41:47.546Z,13.07
2023-04-24T01:44:17.321Z,14.47
2023-04-24T01:46:46.644Z,10.67
2023-04-24T01:49:15.893Z,10.43
2023-04-24T01:51:45.051Z,11.10
2023-04-24T01:54:14.380Z,12.83
2023-04-24T01:56:46.328Z,9.43
2023-04-24T01:59:16.112Z,8.73
2023-04-24T02:01:45.331Z,11.47
2023-04-24T02:04:15.880Z,11.60
2023-04-24T02:06:45.165Z,14.00
2023-04-24T02:09:14.352Z,12.57
2023-04-24T02:11:44.943Z,10.60
2023-04-24T02:14:14.115Z,12.47
2023-04-24T02:16:43.672Z,9.33
2023-04-24T02:19:13.097Z,9.77
2023-04-24T02:21:42.262Z,11.00
2023-04-24T02:24:11.575Z,12.13
2023-04-24T02:26:40.853Z,9.87
2023-04-24T02:29:11.611Z,10.63
2023-04-24T02:31:40.837Z,13.60
2023-04-24T02:34:10.698Z,13.17
2023-04-24T02:36:40.078Z,11.30
2023-04-24T02:39:10.965Z,11.47
2023-04-24T02:41:41.552Z,13.57
2023-04-24T02:44:13.169Z,12.33
2023-04-24T02:46:43.270Z,11.83
2023-04-24T02:49:13.209Z,11.27
2023-04-24T02:51:43.139Z,10.00
2023-04-24T02:54:12.419Z,11.23
2023-04-24T02:56:41.847Z,12.30
2023-04-24T02:59:13.225Z,13.13
2023-04-24T03:01:42.568Z,12.27
2023-04-24T03:04:13.033Z,12.97
2023-04-24T03:06:42.332Z,13.80
2023-04-24T03:09:11.622Z,11.93
2023-04-24T03:11:40.875Z,10.20
2023-04-24T03:14:12.633Z,11.30
2023-04-24T03:16:41.858Z,12.37
2023-04-24T03:19:11.484Z,11.60
2023-04-24T03:21:50.043Z,13.17
2023-04-24T03:24:19.636Z,13.03
2023-04-24T03:26:48.896Z,10.43
2023-04-24T03:29:55.162Z,12.70
2023-04-24T03:32:27.201Z,12.03
2023-04-24T03:34:56.637Z,12.63
2023-04-24T03:37:26.918Z,16.20
2023-04-24T03:40:09.429Z,15.70
2023-04-24T03:42:39.999Z,13.93
2023-04-24T03:45:12.317Z,12.87
2023-04-24T03:47:48.802Z,11.93
2023-04-24T03:50:18.512Z,13.57
2023-04-24T03:52:47.858Z,12.23
2023-04-24T03:55:31.283Z,14.40
2023-04-24T03:58:02.048Z,14.00
2023-04-24T04:00:34.551Z,13.70
2023-04-24T04:03:24.094Z,10.23
2023-04-24T04:05:54.382Z,11.07
2023-04-24T04:08:23.643Z,14.33
2023-04-24T04:10:52.962Z,17.30
2023-04-24T04:13:22.241Z,11.63
2023-04-24T04:15:53.676Z,12.93
2023-04-24T04:18:23.319Z,15.23
2023-04-24T04:20:53.068Z,16.80
2023-04-24T04:23:22.587Z,14.10
2023-04-24T04:26:07.046Z,13.20
2023-04-24T04:28:51.341Z,12.53
2023-04-24T04:31:22.241Z,11.63
2023-04-24T04:33:52.210Z,16.23
2023-04-24T04:36:21.722Z,12.45
2023-04-24T04:38:57.882Z,10.68
2023-04-24T04:41:45.506Z,10.20
2023-04-24T04:44:15.352Z,10.10
2023-04-24T04:46:47.350Z,14.55
2023-04-24T04:49:42.937Z,16.85
2023-04-24T04:52:19.833Z,14.73
2023-04-24T04:54:53.869Z,12.10
2023-04-24T04:57:25.033Z,9.60
2023-04-24T04:59:54.442Z,8.95
2023-04-24T05:02:37.948Z,12.35
2023-04-24T05:05:08.537Z,9.90
2023-04-24T05:07:38.144Z,12.18
2023-04-24T05:10:08.752Z,11.95
2023-04-24T05:12:37.950Z,10.00
2023-04-24T05:15:08.083Z,10.98
2023-04-24T05:17:39.007Z,10.15
2023-04-24T05:20:09.978Z,9.52
2023-04-24T05:22:39.508Z,13.43
2023-04-24T05:25:09.794Z,10.05
2023-04-24T05:28:01.794Z,9.95
2023-04-24T05:30:31.638Z,10.02
2023-04-24T05:33:02.654Z,10.50
2023-04-24T05:35:33.626Z,12.35
2023-04-24T05:38:04.318Z,15.63
2023-04-24T05:40:33.745Z,10.80
2023-04-24T05:43:02.992Z,9.05
2023-04-24T05:45:33.006Z,11.27
2023-04-24T05:48:04.294Z,9.40
2023-04-24T05:50:36.193Z,8.82
2023-04-24T05:53:08.326Z,9.27
2023-04-24T05:55:39.791Z,11.88
2023-04-24T05:58:09.051Z,9.32
2023-04-24T06:00:41.096Z,10.93
2023-04-24T06:03:12.720Z,10.00
2023-04-24T06:05:42.869Z,10.25
2023-04-24T06:08:12.754Z,9.77
2023-04-24T06:10:43.248Z,12.02
2023-04-24T06:13:13.574Z,10.77
2023-04-24T06:15:50.263Z,9.77
2023-04-24T06:18:26.186Z,13.75
2023-04-24T06:20:56.490Z,12.77
2023-04-24T06:23:27.053Z,9.50
2023-04-24T06:25:57.129Z,12.02
2023-04-24T06:28:26.377Z,9.20
2023-04-24T06:30:55.870Z,10.63
2023-04-24T06:33:26.833Z,9.00
2023-04-24T06:35:56.391Z,15.50
2023-04-24T06:38:25.678Z,10.55
2023-04-24T06:40:55.007Z,11.23
2023-04-24T06:43:24.288Z,15.07
2023-04-24T06:45:53.658Z,9.23
2023-04-24T06:48:23.214Z,11.07
2023-04-24T06:50:54.608Z,9.68
2023-04-24T06:53:23.869Z,9.43
2023-04-24T06:55:53.213Z,10.05
2023-04-24T06:58:22.577Z,13.20
2023-04-24T07:00:51.919Z,11.40
2023-04-24T07:03:21.332Z,14.90
2023-04-24T07:05:52.547Z,12.52
2023-04-24T07:08:24.227Z,12.90
2023-04-24T07:10:53.726Z,13.35
2023-04-24T07:13:23.107Z,13.48
2023-04-24T07:15:55.245Z,11.65
2023-04-24T07:18:25.150Z,15.68
2023-04-24T07:20:55.371Z,13.70
2023-04-24T07:23:26.198Z,14.65
2023-04-24T07:25:55.766Z,15.02
2023-04-24T07:28:25.890Z,15.35
2023-04-24T07:30:56.032Z,14.18
2023-04-24T07:33:25.474Z,10.20
2023-04-24T07:35:54.979Z,12.70
2023-04-24T07:38:27.137Z,13.18
2023-04-24T07:40:56.922Z,8.90
2023-04-24T07:43:26.767Z,10.52
2023-04-24T07:45:56.699Z,12.25
2023-04-24T07:48:27.623Z,9.27
2023-04-24T07:50:56.930Z,11.05
2023-04-24T07:53:27.890Z,10.82
2023-04-24T07:55:57.731Z,11.18
2023-04-24T07:58:27.109Z,9.75
2023-04-24T08:00:56.564Z,10.07
2023-04-24T08:03:26.126Z,11.35
2023-04-24T08:05:55.643Z,9.70
2023-04-24T08:08:27.337Z,8.93
2023-04-24T08:10:56.838Z,8.88
2023-04-24T08:13:26.061Z,8.98
2023-04-24T08:15:55.602Z,11.20
2023-04-24T08:18:25.334Z,8.02
2023-04-24T08:20:54.733Z,10.07
2023-04-24T08:23:24.706Z,7.90
2023-04-24T08:25:55.519Z,9.77
2023-04-24T08:28:25.071Z,10.85
2023-04-24T08:30:56.138Z,10.82
2023-04-24T08:33:26.144Z,8.80
2023-04-24T08:35:56.101Z,8.40
2023-04-24T08:38:26.059Z,10.10
2023-04-24T08:40:57.273Z,9.82
2023-04-24T08:43:27.364Z,12.05
2023-04-24T08:46:00.583Z,10.13
2023-04-24T08:48:32.034Z,10.68
2023-04-24T08:51:02.541Z,7.63
2023-04-24T08:53:32.383Z,8.40
2023-04-24T08:56:04.461Z,8.27
2023-04-24T08:58:35.910Z,9.90
2023-04-24T09:01:05.545Z,11.77
2023-04-24T09:03:36.224Z,8.10
2023-04-24T09:06:06.777Z,8.27
2023-04-24T09:08:36.125Z,12.90
2023-04-24T09:11:06.973Z,14.20
2023-04-24T09:13:36.953Z,8.05
2023-04-24T09:16:06.769Z,11.18
2023-04-24T09:18:36.577Z,9.63
2023-04-24T09:21:09.218Z,10.60
2023-04-24T09:23:38.745Z,8.65
2023-04-24T09:26:11.365Z,8.90
2023-04-24T09:28:41.959Z,8.02
2023-04-24T09:31:14.276Z,7.82
2023-04-24T09:33:55.625Z,6.57
2023-04-24T09:36:30.998Z,7.93
2023-04-24T09:39:01.647Z,6.40
2023-04-24T09:41:32.385Z,9.43
2023-04-24T09:44:14.578Z,8.82
2023-04-24T09:46:44.862Z,10.98
2023-04-24T09:49:17.582Z,6.35
2023-04-24T09:51:46.916Z,9.38
2023-04-24T09:54:18.431Z,10.98
2023-04-24T09:56:50.544Z,7.97
2023-04-24T09:59:21.792Z,7.35
2023-04-24T10:01:51.972Z,8.43
2023-04-24T10:04:22.560Z,5.75
2023-04-24T10:06:52.929Z,5.68
2023-04-24T10:09:24.146Z,8.18
2023-04-24T10:11:56.553Z,8.02
2023-04-24T10:14:27.050Z,7.38
2023-04-24T10:16:57.825Z,8.00
2023-04-24T10:19:29.069Z,10.63
2023-04-24T10:21:59.819Z,7.70
2023-04-24T10:24:29.260Z,9.43
2023-04-24T10:27:00.524Z,7.72
2023-04-24T10:29:32.825Z,7.43
2023-04-24T10:32:02.121Z,9.45
2023-04-24T10:34:31.966Z,12.05
2023-04-24T10:37:01.520Z,7.75
2023-04-24T10:39:32.068Z,6.60
2023-04-24T10:42:02.894Z,6.68
2023-04-24T10:44:39.379Z,6.50
2023-04-24T10:47:14.968Z,6.90
2023-04-24T10:49:45.009Z,5.93
2023-04-24T10:52:14.475Z,5.45
2023-04-24T10:54:48.372Z,5.75
2023-04-24T10:57:34.882Z,7.20
2023-04-24T11:00:16.994Z,5.63
2023-04-24T11:02:52.018Z,9.95
2023-04-24T11:05:23.442Z,6.90
2023-04-24T11:08:14.416Z,6.45
2023-04-24T11:10:46.935Z,6.03
2023-04-24T11:13:19.666Z,6.07
2023-04-24T11:16:15.164Z,6.90
2023-04-24T11:18:51.985Z,6.82
2023-04-24T11:21:21.631Z,8.65
2023-04-24T11:23:51.917Z,6.00
2023-04-24T11:26:25.595Z,8.60
2023-04-24T11:28:56.383Z,5.57
2023-04-24T11:31:42.496Z,7.25
2023-04-24T11:34:13.348Z,5.78
2023-04-24T11:36:43.063Z,7.53
2023-04-24T11:39:12.471Z,5.55
2023-04-24T11:41:41.787Z,6.68
2023-04-24T11:44:13.313Z,12.75
2023-04-24T11:46:42.809Z,6.30
2023-04-24T11:49:12.365Z,5.95
2023-04-24T11:51:52.099Z,7.97
2023-04-24T11:54:22.824Z,5.85
2023-04-24T11:56:52.876Z,6.25
2023-04-24T11:59:23.688Z,6.22
2023-04-24T12:01:53.236Z,6.30
2023-04-24T12:04:23.111Z,6.05
2023-04-24T12:07:06.297Z,6.22
2023-04-24T12:09:47.671Z,6.47
2023-04-24T12:12:19.025Z,6.78
2023-04-24T12:14:50.904Z,5.50
2023-04-24T12:17:20.165Z,7.22
2023-04-24T12:19:51.883Z,7.05
2023-04-24T12:22:21.206Z,8.82
2023-04-24T12:25:01.811Z,5.88
2023-04-24T12:27:35.463Z,5.70
2023-04-24T12:30:08.249Z,5.88
2023-04-24T12:32:37.515Z,6.72
2023-04-24T12:35:08.401Z,6.15
2023-04-24T12:37:38.062Z,9.88
2023-04-24T12:40:09.289Z,9.55
2023-04-24T12:42:44.279Z,7.05
2023-04-24T12:45:16.771Z,7.72
2023-04-24T12:47:47.476Z,23.60
2023-04-24T12:50:18.406Z,20.20
2023-04-24T12:52:47.942Z,16.73
2023-04-24T12:55:17.170Z,17.40
2023-04-24T12:57:46.384Z,16.17
2023-04-24T13:00:20.103Z,11.15
2023-04-24T13:02:50.049Z,11.10
2023-04-24T13:05:19.663Z,8.73
2023-04-24T13:07:48.891Z,10.95
2023-04-24T13:10:18.298Z,9.20
2023-04-24T13:12:47.798Z,9.32
2023-04-24T13:15:18.649Z,12.98
2023-04-24T13:17:48.116Z,5.93
2023-04-24T13:20:17.471Z,10.57
2023-04-24T13:22:46.986Z,12.73
2023-04-24T13:25:18.309Z,6.03
2023-04-24T13:27:47.544Z,6.60
2023-04-24T13:30:18.425Z,12.25
2023-04-24T13:32:47.836Z,8.38
2023-04-24T13:35:20.931Z,7.03
2023-04-24T13:37:51.420Z,6.45
2023-04-24T13:40:21.132Z,5.07
2023-04-24T13:42:50.459Z,6.05
2023-04-24T13:45:25.175Z,7.63
2023-04-24T13:47:55.981Z,5.68
2023-04-24T13:50:25.759Z,7.20
2023-04-24T13:52:55.425Z,6.07
2023-04-24T13:55:24.913Z,4.00
2023-04-24T13:57:56.419Z,7.20
2023-04-24T14:00:27.532Z,4.25
2023-04-24T14:02:57.596Z,6.78
2023-04-24T14:05:27.287Z,5.88
2023-04-24T14:07:57.263Z,3.88
2023-04-24T14:10:27.150Z,3.78
2023-04-24T14:12:56.809Z,3.20
2023-04-24T14:15:27.563Z,3.92
2023-04-24T14:17:56.889Z,3.78
2023-04-24T14:20:26.969Z,4.93
2023-04-24T14:22:56.472Z,4.35
2023-04-24T14:25:25.831Z,3.42
2023-04-24T14:27:55.350Z,6.47
2023-04-24T14:30:24.741Z,4.80
2023-04-24T14:32:56.337Z,4.60
2023-04-24T14:35:28.676Z,3.80
2023-04-24T14:37:59.497Z,4.25
2023-04-24T14:40:52.809Z,4.13
2023-04-24T14:43:18.611Z,5.90
2023-04-24T14:45:48.099Z,4.55
2023-04-24T14:48:19.039Z,4.40
2023-04-24T14:50:48.317Z,7.07
2023-04-24T14:53:18.536Z,5.70
2023-04-24T14:55:47.881Z,3.92
2023-04-24T14:58:17.196Z,6.35
2023-04-24T15:00:46.446Z,4.85
2023-04-24T15:03:16.108Z,4.57
2023-04-24T15:05:47.274Z,4.32
2023-04-24T15:08:16.917Z,4.68
2023-04-24T15:10:46.856Z,4.68
2023-04-24T15:13:16.316Z,4.43
2023-04-24T15:15:46.583Z,4.75
2023-04-24T15:18:15.972Z,5.60
2023-04-24T15:20:47.357Z,4.25
2023-04-24T15:23:16.799Z,8.05
2023-04-24T15:25:46.463Z,5.03
2023-04-24T15:28:17.458Z,8.95
2023-04-24T15:30:47.290Z,6.43
2023-04-24T15:33:16.792Z,5.13
2023-04-24T15:35:48.084Z,4.93
2023-04-24T15:38:17.481Z,5.22
2023-04-24T15:40:49.786Z,6.68
2023-04-24T15:43:19.147Z,7.57
2023-04-24T15:45:48.520Z,7.40
2023-04-24T15:48:21.636Z,9.88
2023-04-24T15:54:05.136Z,10.30
2023-04-24T15:56:35.906Z,7.70
2023-04-24T15:59:05.842Z,6.20
2023-04-24T16:01:35.530Z,6.45
2023-04-24T16:04:05.434Z,6.72
2023-04-24T16:06:34.828Z,5.45
2023-04-24T16:09:06.356Z,7.25
2023-04-24T16:11:40.312Z,7.70
2023-04-24T16:14:29.216Z,9.90
2023-04-24T16:17:03.834Z,9.52
2023-04-24T16:19:34.390Z,5.70
2023-04-24T16:22:04.161Z,6.65
2023-04-24T16:24:35.809Z,5.78
2023-04-24T16:27:10.764Z,24.20
2023-04-24T16:29:41.300Z,5.85
2023-04-24T16:32:11.194Z,6.70
2023-04-24T16:34:40.812Z,7.75
2023-04-24T16:37:12.750Z,7.35
2023-04-24T16:39:45.496Z,4.65
2023-04-24T16:42:16.567Z,5.40
2023-04-24T16:44:46.017Z,9.60
2023-04-24T16:47:16.411Z,9.15
2023-04-24T16:49:45.828Z,9.23
2023-04-24T16:52:15.058Z,10.27
2023-04-24T16:54:45.773Z,7.22
2023-04-24T16:57:15.347Z,6.57
2023-04-24T16:59:47.670Z,8.40
2023-04-24T17:02:17.796Z,6.22
2023-04-24T17:04:50.906Z,9.18
2023-04-24T17:07:20.607Z,10.10
2023-04-24T17:09:53.554Z,5.20
2023-04-24T17:12:23.014Z,4.90
2023-04-24T17:14:52.900Z,8.32
2023-04-24T17:17:26.385Z,8.27
2023-04-24T17:19:56.949Z,7.13
2023-04-24T17:22:27.081Z,6.10
2023-04-24T17:24:58.480Z,8.50
2023-04-24T17:27:28.610Z,11.90
2023-04-24T17:29:58.556Z,8.57
2023-04-24T17:32:29.072Z,6.70
2023-04-24T17:34:59.200Z,7.25
2023-04-24T17:37:31.433Z,8.40
2023-04-24T17:40:03.121Z,9.55
2023-04-24T17:42:34.104Z,11.45
2023-04-24T17:45:05.077Z,8.98
2023-04-24T17:47:35.452Z,8.95
2023-04-24T17:50:04.955Z,11.40
2023-04-24T17:52:35.748Z,7.10
2023-04-24T17:55:08.507Z,7.75
2023-04-24T17:57:37.864Z,10.88
2023-04-24T18:00:09.252Z,10.90
2023-04-24T18:02:39.489Z,10.15
2023-04-24T18:05:11.770Z,9.05
2023-04-24T18:07:41.665Z,13.13
2023-04-24T18:10:12.969Z,15.48
2023-04-24T18:12:43.806Z,11.32
2023-04-24T18:15:15.182Z,11.57
2023-04-24T18:17:46.951Z,10.05
2023-04-24T18:20:19.251Z,7.45
2023-04-24T18:22:50.605Z,11.23
2023-04-24T18:25:27.241Z,10.35
2023-04-24T18:27:58.343Z,5.95
2023-04-24T18:30:29.150Z,10.23
2023-04-24T18:32:59.807Z,6.45
2023-04-24T18:35:32.838Z,6.30
2023-04-24T18:38:04.251Z,9.93
2023-04-24T18:40:36.401Z,7.50
2023-04-24T18:43:09.105Z,13.98
2023-04-24T18:45:39.029Z,9.20
2023-04-24T18:48:12.609Z,6.70
2023-04-24T18:50:42.760Z,8.45
2023-04-24T18:53:15.917Z,6.82
2023-04-24T18:55:48.031Z,9.07
2023-04-24T18:58:19.884Z,6.03
2023-04-24T19:00:50.124Z,6.07
2023-04-24T19:03:21.085Z,8.90
2023-04-24T19:05:52.169Z,9.55
2023-04-24T19:08:23.069Z,6.80
2023-04-24T19:10:54.758Z,10.80
2023-04-24T19:13:26.104Z,11.68
2023-04-24T19:15:56.847Z,8.90
2023-04-24T19:18:30.174Z,8.25
2023-04-24T19:21:00.980Z,6.78
2023-04-24T19:23:33.152Z,7.35
2023-04-24T19:26:06.319Z,8.13
2023-04-24T19:28:39.072Z,8.32
2023-04-24T19:31:10.661Z,8.10
2023-04-24T19:33:40.685Z,7.65
2023-04-24T19:36:12.767Z,6.80
2023-04-24T19:38:44.071Z,9.40
2023-04-24T19:41:16.665Z,10.70
2023-04-24T19:43:47.805Z,9.80
2023-04-24T19:46:18.170Z,8.45
2023-04-24T19:48:48.825Z,9.88
2023-04-24T19:51:19.732Z,9.85
2023-04-24T19:53:49.722Z,7.47
2023-04-24T19:56:20.546Z,9.05
2023-04-24T19:58:51.661Z,9.30
2023-04-24T20:01:29.292Z,8.93
2023-04-24T20:03:59.724Z,12.55
2023-04-24T20:06:30.120Z,6.63
2023-04-24T20:08:59.911Z,7.00
2023-04-24T20:11:30.799Z,9.63
2023-04-24T20:14:01.747Z,10.15
2023-04-24T20:16:31.192Z,8.68
2023-04-24T20:19:00.824Z,12.25
2023-04-24T20:21:30.752Z,12.77
2023-04-24T20:24:00.551Z,9.63
2023-04-24T20:26:32.589Z,8.85
2023-04-24T20:29:01.892Z,7.70
2023-04-24T20:31:31.429Z,9.80
2023-04-24T20:34:00.682Z,9.27
2023-04-24T20:36:30.063Z,9.32
2023-04-24T20:39:00.147Z,11.57
2023-04-24T20:41:31.788Z,10.50
2023-04-24T20:44:01.898Z,10.50
2023-04-24T20:46:31.232Z,10.50
2023-04-24T20:49:00.987Z,8.17
2023-04-24T20:51:30.245Z,7.93
2023-04-24T20:53:59.709Z,9.53
2023-04-24T20:56:30.732Z,9.30
2023-04-24T20:59:00.286Z,8.43
2023-04-24T21:01:30.478Z,9.77
2023-04-24T21:03:59.780Z,11.32
2023-04-24T21:06:29.164Z,9.23
2023-04-24T21:08:58.397Z,8.33
2023-04-24T21:11:27.794Z,9.60
2023-04-24T21:13:58.329Z,10.40
2023-04-24T21:16:27.824Z,11.23
2023-04-24T21:18:57.478Z,8.60
2023-04-24T21:21:26.785Z,8.82
2023-04-24T21:23:55.957Z,8.97
2023-04-24T21:26:25.243Z,11.83
2023-04-24T21:28:54.754Z,8.53
2023-04-24T21:31:25.440Z,10.60
2023-04-24T21:33:54.907Z,9.00
2023-04-24T21:36:24.291Z,10.00
2023-04-24T21:38:53.718Z,8.97
2023-04-24T21:41:23.429Z,9.03
2023-04-24T21:43:53.047Z,8.53
2023-04-24T21:46:22.433Z,8.17
2023-04-24T21:48:53.116Z,8.40
2023-04-24T21:51:22.220Z,9.20
2023-04-24T21:53:51.589Z,8.77
2023-04-24T21:56:21.264Z,8.97
2023-04-24T21:58:50.489Z,9.73
2023-04-24T22:01:19.997Z,10.00
2023-04-24T22:03:49.837Z,9.03
2023-04-24T22:06:20.890Z,8.60
2023-04-24T22:08:50.099Z,8.87
2023-04-24T22:11:26.722Z,9.00
2023-04-24T22:13:56.769Z,9.67
2023-04-24T22:16:26.888Z,9.80
2023-04-24T22:18:57.650Z,9.53
2023-04-24T22:21:29.264Z,9.77
2023-04-24T22:23:58.606Z,9.50
2023-04-24T22:26:27.940Z,9.80
2023-04-24T22:28:57.038Z,9.03
2023-04-24T22:31:26.294Z,11.07
2023-04-24T22:33:55.541Z,8.73
2023-04-24T22:36:24.731Z,10.53
2023-04-24T22:38:55.311Z,15.97
2023-04-24T22:41:25.128Z,10.43
2023-04-24T22:43:54.426Z,10.07
2023-04-24T22:46:25.202Z,9.93
2023-04-24T22:48:54.502Z,10.50
2023-04-24T22:51:23.891Z,11.63
2023-04-24T22:53:54.518Z,10.53
2023-04-24T22:56:23.750Z,11.23
2023-04-24T22:58:53.452Z,9.87
2023-04-24T23:01:22.833Z,10.77
2023-04-24T23:03:52.899Z,10.53
2023-04-24T23:06:22.960Z,10.50
2023-04-24T23:08:52.355Z,10.13
2023-04-24T23:11:23.601Z,11.97
2023-04-24T23:13:52.931Z,11.33
2023-04-24T23:16:22.836Z,11.53
2023-04-24T23:18:52.111Z,11.03
2023-04-24T23:21:21.369Z,10.60
2023-04-24T23:23:53.016Z,10.73
2023-04-24T23:26:23.661Z,10.97
2023-04-24T23:28:53.086Z,11.77
2023-04-24T23:31:22.524Z,12.10
2023-04-24T23:33:51.794Z,11.13
2023-04-24T23:36:21.132Z,12.73
2023-04-24T23:38:50.989Z,12.00
2023-04-24T23:41:20.827Z,12.40
2023-04-24T23:43:51.517Z,12.40
2023-04-24T23:46:21.083Z,13.13
2023-04-24T23:48:50.214Z,13.13
2023-04-24T23:51:19.876Z,12.93
2023-04-24T23:53:49.621Z,12.73
2023-04-24T23:56:18.927Z,15.87
2023-04-24T23:58:48.548Z,13.60
